Time;durP1;ratioP1;P1;durP2;ratioP2;P2;SDS_P1;SDS_P2;PMS_P1;PMS_P2;Temp;Humidity;BMP_temperature;BMP_pressure;BME280_temperature;BME280_humidity;BME280_pressure;Samples;Min_cycle;Max_cycle;Signal;HPM_P1;HPM_P2
2021/06/28 00:00:00;;;;;;;9.73;5.97;;;19.70;99.90;;;;;;5028373;28;20185;-85
2021/06/28 00:02:29;;;;;;;8.15;5.80;;;19.70;99.90;;;;;;5012049;28;20571;-85
2021/06/28 00:04:56;;;;;;;6.32;5.72;;;19.70;99.90;;;;;;5012342;28;20184;-86
2021/06/28 00:07:22;;;;;;;6.43;5.82;;;19.90;99.90;;;;;;5011571;28;20250;-84
2021/06/28 00:09:47;;;;;;;6.72;5.20;;;20.00;99.90;;;;;;5011852;28;20180;-84
2021/06/28 00:12:13;;;;;;;7.35;6.13;;;20.00;99.90;;;;;;5011652;28;20283;-86
2021/06/28 00:14:39;;;;;;;8.65;7.13;;;19.80;99.90;;;;;;5017623;28;20164;-85
2021/06/28 00:17:04;;;;;;;7.03;6.32;;;19.60;99.90;;;;;;5025591;28;20195;-84
2021/06/28 00:19:30;;;;;;;6.30;5.70;;;19.40;99.90;;;;;;5030720;28;20219;-83
2021/06/28 00:21:56;;;;;;;7.40;6.72;;;19.40;99.90;;;;;;5034120;28;20161;-84
2021/06/28 00:24:21;;;;;;;5.88;5.20;;;19.40;99.90;;;;;;5020281;28;20171;-86
2021/06/28 00:26:47;;;;;;;6.60;5.85;;;19.40;99.90;;;;;;5015796;28;20169;-84
2021/06/28 00:29:13;;;;;;;8.07;6.68;;;19.50;99.90;;;;;;5014661;28;20215;-85
2021/06/28 00:31:39;;;;;;;7.03;5.95;;;19.60;99.90;;;;;;5013780;28;20509;-86
2021/06/28 00:34:05;;;;;;;7.15;6.50;;;19.60;99.90;;;;;;5014401;28;20195;-84
2021/06/28 00:36:31;;;;;;;7.15;6.28;;;19.70;99.90;;;;;;5011847;28;20263;-84
2021/06/28 00:38:57;;;;;;;6.00;5.50;;;19.70;99.90;;;;;;5012230;28;20335;-85
2021/06/28 00:41:22;;;;;;;7.15;5.93;;;19.50;99.90;;;;;;5015295;28;20169;-84
2021/06/28 00:43:48;;;;;;;8.32;6.50;;;19.50;99.90;;;;;;5016676;28;20257;-83
2021/06/28 00:46:14;;;;;;;6.80;6.20;;;19.60;99.90;;;;;;5016625;28;20161;-85
2021/06/28 00:48:40;;;;;;;12.60;6.70;;;19.80;99.90;;;;;;5017087;28;20503;-85
2021/06/28 00:51:06;;;;;;;7.20;6.40;;;20.00;99.90;;;;;;5031953;28;20169;-84
2021/06/28 00:53:32;;;;;;;7.68;6.95;;;20.00;99.90;;;;;;5013653;28;20192;-85
2021/06/28 00:56:09;;;;;;;6.95;6.25;;;20.10;99.90;;;;;;5013899;28;20165;-84
2021/06/28 00:58:39;;;;;;;7.05;6.30;;;19.90;99.90;;;;;;5030273;28;20307;-84
2021/06/28 01:01:05;;;;;;;6.80;6.20;;;19.80;99.90;;;;;;5013922;28;20168;-84
2021/06/28 01:03:31;;;;;;;6.88;6.28;;;19.80;99.90;;;;;;5013755;28;20196;-85
2021/06/28 01:05:57;;;;;;;6.63;6.00;;;19.80;99.90;;;;;;5015236;28;20184;-84
2021/06/28 01:08:23;;;;;;;6.95;6.35;;;19.60;99.90;;;;;;5014645;28;20195;-85
2021/06/28 01:10:49;;;;;;;7.22;6.70;;;19.70;99.90;;;;;;5014962;28;20682;-83
2021/06/28 01:13:14;;;;;;;9.00;5.90;;;19.90;99.90;;;;;;5031540;28;20218;-85
2021/06/28 01:15:40;;;;;;;7.55;6.78;;;19.90;99.90;;;;;;5014945;28;20171;-83
2021/06/28 01:18:07;;;;;;;6.97;6.38;;;19.80;99.90;;;;;;5014648;28;20228;-85
2021/06/28 01:20:33;;;;;;;8.68;6.38;;;19.90;99.90;;;;;;5015847;28;20168;-84
2021/06/28 01:23:17;;;;;;;6.55;6.00;;;19.80;99.90;;;;;;4998606;28;20227;-86
2021/06/28 01:25:43;;;;;;;7.10;6.50;;;19.70;99.90;;;;;;5014474;28;20263;-83
2021/06/28 01:28:09;;;;;;;8.68;6.47;;;19.90;99.90;;;;;;5030908;28;20173;-85
2021/06/28 01:30:35;;;;;;;13.85;7.13;;;20.00;99.90;;;;;;5014475;28;20173;-85
2021/06/28 01:33:01;;;;;;;7.35;6.75;;;20.00;99.90;;;;;;5014491;28;20192;-85
2021/06/28 01:35:26;;;;;;;6.78;6.18;;;19.80;99.90;;;;;;5015519;28;20161;-85
2021/06/28 01:37:52;;;;;;;6.63;6.03;;;19.80;99.90;;;;;;5014552;28;20176;-84
2021/06/28 01:40:18;;;;;;;11.38;6.95;;;19.80;99.90;;;;;;5015597;28;20191;-85
2021/06/28 01:42:46;;;;;;;7.60;6.78;;;19.80;99.90;;;;;;5014118;28;20195;-85
2021/06/28 01:45:14;;;;;;;7.43;6.72;;;20.10;99.90;;;;;;5013727;28;20180;-84
2021/06/28 01:47:42;;;;;;;10.30;7.05;;;20.20;99.90;;;;;;5016209;28;20164;-84
2021/06/28 01:50:10;;;;;;;7.35;6.68;;;20.40;99.90;;;;;;5015081;28;20179;-84
2021/06/28 01:52:36;;;;;;;8.13;5.88;;;20.30;99.90;;;;;;5015082;28;20193;-83
2021/06/28 01:55:06;;;;;;;7.10;6.40;;;20.20;99.90;;;;;;5018527;28;20203;-83
2021/06/28 01:57:31;;;;;;;6.78;6.25;;;20.10;99.90;;;;;;5037846;28;20179;-85
2021/06/28 01:59:57;;;;;;;9.25;7.03;;;19.80;99.90;;;;;;5037036;28;20302;-84
2021/06/28 02:02:23;;;;;;;7.63;7.03;;;19.80;99.90;;;;;;5028460;28;20204;-84
2021/06/28 02:04:50;;;;;;;7.78;7.07;;;19.60;99.90;;;;;;5018165;28;20189;-84
2021/06/28 02:07:15;;;;;;;8.77;7.18;;;19.60;99.90;;;;;;5015884;28;20590;-85
2021/06/28 02:09:41;;;;;;;12.88;6.38;;;19.70;99.90;;;;;;5014863;28;20176;-85
2021/06/28 02:12:07;;;;;;;7.40;6.70;;;19.50;99.90;;;;;;5013886;28;20197;-85
2021/06/28 02:14:34;;;;;;;6.63;6.03;;;19.40;99.90;;;;;;5015257;28;20169;-83
2021/06/28 02:17:00;;;;;;;6.57;5.90;;;19.50;99.90;;;;;;5015122;28;20172;-84
2021/06/28 02:19:26;;;;;;;7.88;6.40;;;19.70;99.90;;;;;;5014326;28;20212;-85
2021/06/28 02:21:52;;;;;;;7.18;6.57;;;19.70;99.90;;;;;;5013790;28;20171;-86
2021/06/28 02:24:18;;;;;;;6.80;5.97;;;19.90;99.90;;;;;;5014711;28;20644;-82
2021/06/28 02:26:45;;;;;;;7.40;6.40;;;19.90;99.90;;;;;;5013659;28;20165;-85
2021/06/28 02:29:12;;;;;;;7.07;6.43;;;19.80;99.90;;;;;;5013435;28;20633;-84
2021/06/28 02:31:39;;;;;;;8.02;7.30;;;19.70;99.90;;;;;;5013184;28;20527;-84
2021/06/28 02:34:05;;;;;;;8.48;7.68;;;19.70;99.90;;;;;;5013230;28;20783;-83
2021/06/28 02:36:31;;;;;;;8.23;7.38;;;19.60;99.90;;;;;;5014726;28;20251;-84
2021/06/28 02:38:59;;;;;;;7.60;6.90;;;19.60;99.90;;;;;;5013426;28;20672;-83
2021/06/28 02:41:26;;;;;;;9.75;6.88;;;19.50;99.90;;;;;;5029659;28;20165;-84
2021/06/28 02:43:53;;;;;;;7.35;6.65;;;19.30;99.90;;;;;;5013016;28;20251;-84
2021/06/28 02:46:20;;;;;;;9.75;6.85;;;19.20;99.90;;;;;;5013360;28;20160;-84
2021/06/28 02:48:45;;;;;;;7.45;6.85;;;19.10;99.90;;;;;;5013542;28;20221;-84
2021/06/28 02:51:15;;;;;;;7.95;7.32;;;19.10;99.90;;;;;;5013020;28;20168;-85
2021/06/28 02:53:42;;;;;;;11.40;7.75;;;19.10;99.90;;;;;;5013343;28;20640;-85
2021/06/28 02:56:13;;;;;;;10.38;7.25;;;19.30;99.90;;;;;;5013507;28;20168;-84
2021/06/28 02:58:44;;;;;;;9.73;7.50;;;19.30;99.90;;;;;;5013152;28;20237;-84
2021/06/28 03:01:12;;;;;;;14.65;7.40;;;19.30;99.90;;;;;;5014368;28;20181;-84
2021/06/28 03:03:37;;;;;;;9.90;8.05;;;19.50;99.90;;;;;;5012908;28;20278;-84
2021/06/28 03:06:04;;;;;;;12.95;7.25;;;19.60;99.90;;;;;;5012796;28;20184;-84
2021/06/28 03:08:30;;;;;;;8.60;7.72;;;19.50;99.90;;;;;;5012476;28;20180;-86
2021/06/28 03:10:56;;;;;;;11.27;7.65;;;19.50;99.90;;;;;;5012890;28;20531;-85
2021/06/28 03:13:21;;;;;;;8.02;7.28;;;19.60;99.90;;;;;;5012794;28;20554;-85
2021/06/28 03:15:47;;;;;;;9.88;8.27;;;19.60;99.90;;;;;;5014067;28;20525;-86
2021/06/28 03:18:13;;;;;;;8.15;7.55;;;19.70;99.90;;;;;;5013299;28;20198;-84
2021/06/28 03:20:38;;;;;;;9.05;7.88;;;19.80;99.90;;;;;;5013774;28;20181;-84
2021/06/28 03:23:04;;;;;;;11.35;7.07;;;19.80;99.90;;;;;;5012369;28;20181;-85
2021/06/28 03:25:30;;;;;;;13.93;7.38;;;19.70;99.90;;;;;;5012820;28;20696;-85
2021/06/28 03:27:56;;;;;;;7.88;7.18;;;19.80;99.90;;;;;;5012396;28;20263;-83
2021/06/28 03:30:22;;;;;;;10.07;8.02;;;19.50;99.90;;;;;;5012499;28;20183;-85
2021/06/28 03:32:48;;;;;;;8.90;8.10;;;19.50;99.90;;;;;;5028775;28;20199;-84
2021/06/28 03:35:13;;;;;;;8.45;7.68;;;19.60;99.90;;;;;;5012371;28;20184;-87
2021/06/28 03:37:40;;;;;;;14.48;8.32;;;19.60;99.90;;;;;;5013673;28;20230;-84
2021/06/28 03:40:08;;;;;;;11.25;8.27;;;19.70;99.90;;;;;;5016761;28;20204;-85
2021/06/28 03:42:35;;;;;;;17.48;8.52;;;19.80;99.90;;;;;;5024919;28;20188;-86
2021/06/28 03:45:03;;;;;;;8.68;7.97;;;19.70;99.90;;;;;;5021734;28;20175;-85
2021/06/28 03:47:29;;;;;;;7.75;6.95;;;19.50;99.90;;;;;;5023197;28;20164;-83
2021/06/28 03:49:54;;;;;;;13.30;6.95;;;19.40;99.90;;;;;;5030354;28;20180;-84
2021/06/28 03:52:20;;;;;;;7.78;7.07;;;19.50;99.90;;;;;;5014444;28;20192;-85
2021/06/28 03:54:45;;;;;;;11.00;7.88;;;19.60;99.90;;;;;;5025488;28;20168;-83
2021/06/28 03:57:11;;;;;;;19.63;8.02;;;19.80;99.90;;;;;;5016588;28;20188;-84
2021/06/28 03:59:36;;;;;;;13.50;7.60;;;19.90;99.90;;;;;;5028474;28;20208;-84
2021/06/28 04:02:03;;;;;;;9.43;8.02;;;20.10;99.90;;;;;;5013396;28;20629;-83
2021/06/28 04:04:28;;;;;;;9.25;7.60;;;20.20;99.90;;;;;;5011944;28;20200;-84
2021/06/28 04:06:54;;;;;;;7.97;7.30;;;20.50;99.90;;;;;;5029517;28;20192;-84
2021/06/28 04:09:20;;;;;;;13.50;7.95;;;20.90;99.90;;;;;;5013533;28;20180;-85
2021/06/28 04:11:45;;;;;;;13.98;7.72;;;21.20;99.90;;;;;;5029933;28;20665;-88
2021/06/28 04:14:13;;;;;;;7.57;6.88;;;21.40;99.90;;;;;;5013913;28;20190;-85
2021/06/28 04:16:38;;;;;;;8.48;7.63;;;21.40;99.90;;;;;;5016302;28;20173;-86
2021/06/28 04:19:04;;;;;;;9.40;6.80;;;21.50;99.90;;;;;;5018577;28;20204;-86
2021/06/28 04:21:34;;;;;;;12.48;7.72;;;21.50;99.90;;;;;;5017276;28;20191;-89
2021/06/28 04:24:03;;;;;;;7.80;7.13;;;21.40;99.90;;;;;;5017517;28;20629;-84
2021/06/28 04:26:29;;;;;;;7.40;6.70;;;21.10;99.90;;;;;;5016812;28;20651;-85
2021/06/28 04:28:56;;;;;;;12.50;7.82;;;20.90;99.90;;;;;;5016444;28;20172;-87
2021/06/28 04:31:21;;;;;;;8.18;7.47;;;21.00;99.90;;;;;;5018439;28;20216;-83
2021/06/28 04:33:47;;;;;;;11.77;8.20;;;21.20;99.90;;;;;;5016972;28;20683;-85
2021/06/28 04:36:13;;;;;;;8.13;7.47;;;21.30;99.90;;;;;;5016637;28;20175;-84
2021/06/28 04:38:38;;;;;;;8.55;7.60;;;21.50;99.90;;;;;;5016335;28;20262;-85
2021/06/28 04:41:04;;;;;;;7.38;6.85;;;21.70;99.90;;;;;;5018410;28;20300;-85
2021/06/28 04:43:30;;;;;;;7.93;7.28;;;21.70;99.90;;;;;;5033923;28;20275;-83
2021/06/28 04:45:55;;;;;;;8.65;7.90;;;21.90;99.90;;;;;;5034944;28;20187;-86
2021/06/28 04:48:21;;;;;;;12.20;8.13;;;21.90;99.90;;;;;;5016025;28;20258;-87
2021/06/28 04:50:47;;;;;;;8.63;7.82;;;22.00;99.90;;;;;;5016139;28;20169;-85
2021/06/28 04:53:13;;;;;;;12.82;8.18;;;22.00;99.90;;;;;;5016185;28;20199;-86
2021/06/28 04:55:39;;;;;;;8.23;7.53;;;21.90;99.90;;;;;;5017808;28;20223;-85
2021/06/28 04:58:05;;;;;;;8.05;7.32;;;21.70;99.90;;;;;;5015739;28;20208;-84
2021/06/28 05:00:31;;;;;;;11.50;8.43;;;21.30;99.90;;;;;;5017417;28;20645;-85
2021/06/28 05:02:56;;;;;;;12.90;7.72;;;21.30;99.90;;;;;;5017278;28;20180;-85
2021/06/28 05:05:22;;;;;;;7.95;7.25;;;21.20;99.90;;;;;;5017391;28;20183;-86
2021/06/28 05:07:48;;;;;;;11.25;8.15;;;21.30;99.90;;;;;;5016080;28;20314;-86
2021/06/28 05:10:15;;;;;;;14.50;8.75;;;21.50;99.90;;;;;;5015435;28;20179;-84
2021/06/28 05:12:40;;;;;;;9.68;8.55;;;21.60;99.90;;;;;;5016601;28;20211;-85
2021/06/28 05:15:07;;;;;;;15.57;8.65;;;21.60;99.90;;;;;;5014467;28;20173;-83
2021/06/28 05:17:33;;;;;;;11.40;8.40;;;21.60;99.90;;;;;;5014794;28;20176;-83
2021/06/28 05:19:59;;;;;;;13.98;8.30;;;21.60;99.90;;;;;;5016762;28;20254;-84
2021/06/28 05:22:26;;;;;;;9.73;8.63;;;21.40;99.90;;;;;;5017648;28;20188;-84
2021/06/28 05:24:52;;;;;;;15.95;8.70;;;21.50;99.90;;;;;;5017232;28;20227;-85
2021/06/28 05:27:17;;;;;;;11.80;9.43;;;21.40;99.90;;;;;;5014490;28;20169;-87
2021/06/28 05:29:43;;;;;;;13.88;9.55;;;21.60;99.90;;;;;;5014577;28;20165;-85
2021/06/28 05:32:08;;;;;;;9.73;8.50;;;21.70;99.90;;;;;;5017692;28;20192;-84
2021/06/28 05:34:34;;;;;;;14.27;8.25;;;21.90;99.90;;;;;;5017076;28;20172;-86
2021/06/28 05:37:00;;;;;;;13.70;9.05;;;21.70;99.90;;;;;;5015711;28;20165;-86
2021/06/28 05:39:26;;;;;;;10.18;7.85;;;21.70;99.90;;;;;;5031473;28;20205;-84
2021/06/28 05:41:51;;;;;;;10.70;9.00;;;21.90;99.90;;;;;;5015399;28;20172;-85
2021/06/28 05:44:17;;;;;;;14.23;8.85;;;21.60;99.90;;;;;;5016625;28;20629;-83
2021/06/28 05:46:42;;;;;;;15.02;8.85;;;21.80;99.90;;;;;;5016789;28;20165;-83
2021/06/28 05:49:08;;;;;;;11.30;8.73;;;22.00;99.90;;;;;;5016085;28;20173;-83
2021/06/28 05:51:34;;;;;;;14.13;8.85;;;22.20;99.90;;;;;;5015412;28;20183;-84
2021/06/28 05:54:00;;;;;;;12.70;8.70;;;22.30;99.90;;;;;;5015757;28;20184;-84
2021/06/28 05:56:26;;;;;;;10.15;8.55;;;22.30;99.90;;;;;;5013871;28;20687;-85
2021/06/28 05:58:51;;;;;;;9.90;8.85;;;22.40;99.90;;;;;;5013196;28;20311;-84
2021/06/28 06:01:17;;;;;;;15.27;8.05;;;22.40;99.90;;;;;;5013931;28;20199;-84
2021/06/28 06:03:44;;;;;;;8.98;8.15;;;22.40;99.90;;;;;;5014051;28;20185;-85
2021/06/28 06:06:09;;;;;;;8.80;8.05;;;22.40;99.90;;;;;;5014647;28;20291;-85
2021/06/28 06:08:35;;;;;;;9.25;8.45;;;22.60;99.90;;;;;;5014075;28;20211;-84
2021/06/28 06:11:02;;;;;;;13.23;7.72;;;22.80;99.90;;;;;;5014025;28;20562;-85
2021/06/28 06:13:28;;;;;;;16.17;8.10;;;23.00;99.90;;;;;;5013755;28;20192;-85
2021/06/28 06:15:55;;;;;;;9.15;8.30;;;23.20;99.90;;;;;;5015537;28;20222;-85
2021/06/28 06:18:21;;;;;;;12.48;8.15;;;23.30;99.90;;;;;;5013940;28;20188;-86
2021/06/28 06:20:48;;;;;;;9.25;8.20;;;23.40;99.90;;;;;;5013528;28;20168;-86
2021/06/28 06:23:14;;;;;;;13.25;8.25;;;23.50;99.90;;;;;;5013543;28;20227;-86
2021/06/28 06:25:42;;;;;;;11.07;8.75;;;23.80;99.90;;;;;;5030271;28;20579;-88
2021/06/28 06:28:07;;;;;;;11.82;9.13;;;23.80;99.90;;;;;;5013644;28;20188;-85
2021/06/28 06:30:36;;;;;;;9.90;8.90;;;23.80;99.90;;;;;;5013953;28;20176;-86
2021/06/28 06:33:03;;;;;;;8.77;8.00;;;24.10;99.90;;;;;;5015232;28;20203;-85
2021/06/28 06:35:30;;;;;;;9.30;8.45;;;24.40;99.90;;;;;;5013335;28;20171;-84
2021/06/28 06:37:57;;;;;;;13.88;9.32;;;24.70;99.90;;;;;;5013230;28;20176;-85
2021/06/28 06:40:25;;;;;;;13.10;8.63;;;24.90;99.90;;;;;;5013837;28;20180;-87
2021/06/28 06:42:52;;;;;;;10.32;8.70;;;25.10;99.90;;;;;;5014116;28;20196;-84
2021/06/28 06:45:19;;;;;;;9.25;8.27;;;24.90;99.90;;;;;;5014157;28;20179;-87
2021/06/28 06:47:45;;;;;;;17.52;9.43;;;24.50;99.90;;;;;;5013854;28;20168;-85
2021/06/28 06:50:12;;;;;;;22.30;9.45;;;24.60;99.90;;;;;;5014148;28;20211;-85
2021/06/28 06:52:38;;;;;;;15.38;8.50;;;24.50;99.90;;;;;;5017669;28;20227;-86
2021/06/28 06:55:06;;;;;;;12.18;8.85;;;25.10;99.90;;;;;;5033593;28;20192;-86
2021/06/28 06:57:33;;;;;;;14.27;10.93;;;25.70;99.90;;;;;;5016551;28;20199;-86
2021/06/28 06:59:58;;;;;;;10.73;9.07;;;25.80;99.90;;;;;;5016850;28;20223;-85
2021/06/28 07:02:24;;;;;;;13.45;8.88;;;25.90;99.90;;;;;;5016970;28;20208;-87
2021/06/28 07:04:49;;;;;;;9.70;7.85;;;25.70;99.90;;;;;;5032734;28;20294;-86
2021/06/28 07:07:15;;;;;;;7.70;6.97;;;25.20;99.90;;;;;;5016787;28;20243;-85
2021/06/28 07:09:41;;;;;;;10.65;7.75;;;25.30;99.90;;;;;;5014830;28;20566;-84
2021/06/28 07:12:07;;;;;;;16.10;10.10;;;25.30;99.90;;;;;;5014647;28;20203;-85
2021/06/28 07:14:32;;;;;;;11.38;8.52;;;25.60;99.90;;;;;;5014724;28;20175;-84
2021/06/28 07:16:58;;;;;;;13.05;8.60;;;25.80;99.90;;;;;;5014979;28;20172;-83
2021/06/28 07:19:24;;;;;;;6.72;5.65;;;25.30;99.90;;;;;;4998668;28;20213;-85
2021/06/28 07:21:49;;;;;;;6.28;5.57;;;25.20;99.90;;;;;;5010365;28;21004;-86
2021/06/28 07:24:15;;;;;;;6.95;5.53;;;25.10;99.90;;;;;;5015815;28;20188;-85
2021/06/28 07:26:42;;;;;;;9.73;5.95;;;25.20;99.90;;;;;;5022259;28;20180;-83
2021/06/28 07:29:07;;;;;;;10.52;6.63;;;25.10;99.90;;;;;;5029550;28;20260;-83
2021/06/28 07:31:33;;;;;;;11.50;4.90;;;25.30;99.90;;;;;;5032153;28;20169;-82
2021/06/28 07:34:02;;;;;;;4.65;4.25;;;25.50;99.90;;;;;;5035575;28;20206;-83
2021/06/28 07:36:27;;;;;;;5.25;4.30;;;25.30;99.90;;;;;;5052673;28;20232;-84
2021/06/28 07:38:53;;;;;;;10.43;5.13;;;25.40;99.90;;;;;;5019114;28;20267;-85
2021/06/28 07:41:19;;;;;;;9.40;5.25;;;25.30;99.90;;;;;;5015305;28;20526;-84
2021/06/28 07:43:44;;;;;;;5.78;5.28;;;25.20;99.90;;;;;;5016766;28;20212;-82
2021/06/28 07:46:10;;;;;;;10.48;4.85;;;25.20;99.90;;;;;;5031062;28;20187;-85
2021/06/28 07:48:36;;;;;;;5.05;4.65;;;25.00;99.90;;;;;;5015630;28;20164;-86
2021/06/28 07:51:02;;;;;;;11.77;3.80;;;24.80;99.90;;;;;;5014416;28;20199;-84
2021/06/28 07:53:30;;;;;;;5.70;4.43;;;24.70;99.90;;;;;;5014044;28;20188;-86
2021/06/28 07:55:56;;;;;;;6.38;4.63;;;24.50;99.90;;;;;;5015635;28;20210;-85
2021/06/28 07:58:25;;;;;;;10.68;4.88;;;24.40;99.90;;;;;;5013241;28;20227;-85
2021/06/28 08:00:51;;;;;;;4.30;4.00;;;24.50;99.90;;;;;;5013841;28;20204;-85
2021/06/28 08:03:16;;;;;;;4.53;4.13;;;24.50;99.90;;;;;;5013261;28;20189;-85
2021/06/28 08:05:42;;;;;;;5.30;4.85;;;24.30;99.90;;;;;;5016027;28;20184;-84
2021/06/28 08:08:07;;;;;;;12.48;5.18;;;24.20;99.90;;;;;;5015001;28;20238;-84
2021/06/28 08:10:33;;;;;;;5.20;4.28;;;24.30;99.90;;;;;;5014682;28;20306;-83
2021/06/28 08:12:59;;;;;;;7.18;4.35;;;24.30;99.90;;;;;;5013775;28;20195;-83
2021/06/28 08:15:25;;;;;;;6.43;4.47;;;24.50;99.90;;;;;;5013161;28;20231;-84
2021/06/28 08:17:51;;;;;;;7.13;5.20;;;24.50;99.90;;;;;;5012817;28;20632;-85
2021/06/28 08:20:20;;;;;;;5.18;4.60;;;24.70;99.90;;;;;;5014335;28;20172;-83
2021/06/28 08:22:46;;;;;;;4.18;3.80;;;24.80;99.90;;;;;;5011464;28;20200;-82
2021/06/28 08:25:13;;;;;;;5.70;5.15;;;24.80;99.90;;;;;;5028649;28;20264;-82
2021/06/28 08:27:39;;;;;;;8.60;5.13;;;24.90;99.90;;;;;;5028770;28;20641;-84
2021/06/28 08:30:07;;;;;;;5.55;5.10;;;24.90;99.90;;;;;;5028401;28;20192;-82
2021/06/28 08:32:32;;;;;;;7.97;5.10;;;24.90;99.90;;;;;;5029683;28;20383;-82
2021/06/28 08:34:59;;;;;;;6.07;5.50;;;24.90;99.90;;;;;;5028629;28;20637;-84
2021/06/28 08:37:26;;;;;;;6.13;5.10;;;24.70;99.90;;;;;;5012384;28;20251;-84
2021/06/28 08:39:52;;;;;;;10.68;5.40;;;24.50;99.90;;;;;;5012047;28;20303;-84
2021/06/28 08:42:18;;;;;;;14.27;5.88;;;24.40;99.90;;;;;;5014178;28;20683;-82
2021/06/28 08:44:45;;;;;;;8.32;6.82;;;24.30;99.90;;;;;;5018859;28;20171;-83
2021/06/28 08:47:12;;;;;;;6.18;5.57;;;24.00;99.90;;;;;;5021332;28;20181;-82
2021/06/28 08:49:43;;;;;;;6.82;5.95;;;24.20;99.90;;;;;;5006034;28;20173;-84
2021/06/28 08:52:09;;;;;;;6.53;5.93;;;24.10;99.90;;;;;;5013673;28;20203;-84
2021/06/28 08:54:35;;;;;;;8.77;5.55;;;24.10;99.90;;;;;;5011721;28;20180;-84
2021/06/28 08:57:01;;;;;;;9.27;6.53;;;24.30;99.90;;;;;;5008934;28;20186;-86
2021/06/28 08:59:27;;;;;;;6.65;6.05;;;24.50;99.90;;;;;;4999749;28;20221;-88
2021/06/28 09:01:53;;;;;;;5.80;5.30;;;24.40;99.90;;;;;;4997307;28;20212;-90
2021/06/28 09:04:21;;;;;;;12.10;6.25;;;24.70;99.90;;;;;;4998473;28;20180;-88
2021/06/28 09:06:46;;;;;;;6.50;6.00;;;24.90;99.90;;;;;;4999169;28;20581;-90
2021/06/28 09:09:15;;;;;;;11.55;5.88;;;25.00;99.90;;;;;;4999634;28;20166;-88
2021/06/28 09:11:41;;;;;;;9.40;5.95;;;25.00;99.90;;;;;;4999363;28;20235;-86
2021/06/28 09:14:09;;;;;;;10.35;6.05;;;24.90;99.90;;;;;;4999500;28;20657;-85
2021/06/28 09:16:36;;;;;;;40.50;8.02;;;24.90;99.90;;;;;;4999150;28;20300;-88
2021/06/28 09:19:05;;;;;;;51.13;9.27;;;24.70;99.90;;;;;;5000014;28;20200;-88
2021/06/28 09:21:37;;;;;;;10.23;5.28;;;24.50;99.90;;;;;;5011330;28;20180;-87
2021/06/28 09:24:05;;;;;;;10.65;4.97;;;24.60;99.90;;;;;;5017409;28;20665;-87
2021/06/28 09:26:33;;;;;;;19.10;5.60;;;24.50;99.90;;;;;;5033706;28;20168;-88
2021/06/28 09:29:02;;;;;;;4.40;4.00;;;24.30;99.90;;;;;;5019853;28;20641;-87
2021/06/28 09:31:39;;;;;;;4.53;3.70;;;24.20;99.90;;;;;;5034795;28;20180;-89
2021/06/28 09:34:21;;;;;;;5.53;3.00;;;24.10;99.90;;;;;;5035493;28;20180;-90
2021/06/28 09:36:55;;;;;;;3.75;3.45;;;24.30;99.90;;;;;;5015583;28;20184;-89
2021/06/28 09:39:38;;;;;;;4.25;3.65;;;24.20;99.90;;;;;;4999322;28;20756;-86
2021/06/28 09:42:07;;;;;;;5.80;4.45;;;24.30;99.90;;;;;;4999068;28;20247;-85
2021/06/28 09:44:34;;;;;;;14.02;5.07;;;24.40;99.90;;;;;;5013596;28;20184;-85
2021/06/28 09:47:10;;;;;;;5.03;4.18;;;24.70;99.90;;;;;;4996009;28;20213;-83
2021/06/28 09:49:37;;;;;;;4.35;3.95;;;24.70;99.90;;;;;;5011727;28;20180;-81
2021/06/28 09:52:05;;;;;;;4.88;3.38;;;24.60;99.90;;;;;;5010079;28;20583;-83
2021/06/28 09:54:36;;;;;;;3.03;2.53;;;24.60;99.90;;;;;;4994791;28;20180;-85
2021/06/28 09:57:05;;;;;;;7.13;3.08;;;24.60;99.90;;;;;;4995261;28;20597;-81
2021/06/28 09:59:40;;;;;;;8.70;4.18;;;24.60;99.90;;;;;;4994945;28;20220;-82
2021/06/28 10:02:21;;;;;;;9.70;2.92;;;24.70;99.90;;;;;;4995007;28;20188;-81
2021/06/28 10:04:57;;;;;;;4.57;3.72;;;24.50;99.90;;;;;;4994805;28;20224;-83
2021/06/28 10:07:28;;;;;;;10.35;3.45;;;24.60;99.90;;;;;;5000419;28;20199;-85
2021/06/28 10:10:23;;;;;;;13.15;4.30;;;24.80;99.90;;;;;;4997350;28;20173;-84
2021/06/28 10:12:52;;;;;;;6.32;3.30;;;24.80;99.90;;;;;;4996365;28;20196;-84
2021/06/28 10:15:20;;;;;;;4.35;3.85;;;24.90;99.90;;;;;;5015002;28;20187;-84
2021/06/28 10:17:47;;;;;;;4.55;4.10;;;25.00;99.90;;;;;;5014019;28;20180;-84
2021/06/28 10:20:20;;;;;;;7.43;3.42;;;25.10;99.90;;;;;;5015458;28;20255;-84
2021/06/28 10:22:47;;;;;;;4.60;2.92;;;25.20;99.90;;;;;;5012546;28;20188;-83
2021/06/28 10:25:15;;;;;;;5.68;3.00;;;25.60;99.90;;;;;;5014248;28;20211;-83
2021/06/28 10:27:42;;;;;;;6.38;2.28;;;25.80;99.90;;;;;;5013980;28;20174;-83
2021/06/28 10:30:12;;;;;;;8.23;2.60;;;25.70;99.90;;;;;;5014480;28;20168;-83
2021/06/28 10:32:39;;;;;;;2.40;2.20;;;25.70;99.90;;;;;;5012883;28;20333;-83
2021/06/28 10:35:07;;;;;;;3.42;2.78;;;25.70;99.90;;;;;;5013696;28;20530;-85
2021/06/28 10:37:46;;;;;;;4.57;2.92;;;25.90;99.90;;;;;;5013934;28;20230;-84
2021/06/28 10:40:20;;;;;;;8.75;2.60;;;26.00;99.90;;;;;;5013892;28;20253;-82
2021/06/28 10:42:54;;;;;;;3.40;2.72;;;26.10;99.90;;;;;;5014874;28;20262;-83
2021/06/28 10:45:46;;;;;;;2.75;2.55;;;25.80;99.90;;;;;;5015513;28;20203;-87
2021/06/28 10:48:15;;;;;;;9.70;3.25;;;25.60;99.90;;;;;;5014126;28;20183;-82
2021/06/28 10:50:57;;;;;;;13.18;3.33;;;25.50;99.90;;;;;;5014717;28;20218;-81
2021/06/28 10:53:32;;;;;;;12.43;3.72;;;25.30;99.90;;;;;;5014475;28;20188;-82
2021/06/28 10:59:05;;;;;;;9.55;4.28;;;25.10;99.90;;;;;;5016837;28;20254;-82
2021/06/28 11:01:35;;;;;;;5.28;3.17;;;24.90;99.90;;;;;;5015630;28;20653;-82
2021/06/28 11:04:16;;;;;;;2.95;2.75;;;24.80;99.90;;;;;;5015749;28;20197;-83
2021/06/28 11:07:00;;;;;;;3.35;3.05;;;24.80;99.90;;;;;;5014896;28;20215;-82
2021/06/28 11:09:55;;;;;;;2.80;2.50;;;24.80;99.90;;;;;;5014224;28;20186;-81
2021/06/28 11:12:32;;;;;;;5.43;3.13;;;25.20;99.90;;;;;;5014487;28;20196;-81
2021/06/28 11:15:02;;;;;;;5.13;2.97;;;25.30;99.90;;;;;;5013397;28;20180;-80
2021/06/28 11:17:52;;;;;;;3.47;2.95;;;25.40;99.90;;;;;;5013320;28;20192;-82
2021/06/28 11:20:28;;;;;;;6.75;3.50;;;25.60;99.90;;;;;;5014055;28;20208;-81
2021/06/28 11:23:07;;;;;;;6.47;3.13;;;25.60;99.90;;;;;;5013158;28;20566;-81
2021/06/28 11:25:55;;;;;;;6.15;3.45;;;25.50;99.90;;;;;;5012608;28;20168;-82
2021/06/28 11:28:34;;;;;;;9.43;3.85;;;25.50;99.90;;;;;;5013928;28;20172;-83
2021/06/28 11:30:59;;;;;;;4.70;4.30;;;25.50;99.90;;;;;;5030041;28;20659;-82
2021/06/28 11:33:45;;;;;;;3.38;3.17;;;25.70;99.90;;;;;;5029795;28;20192;-84
2021/06/28 11:36:31;;;;;;;9.27;5.20;;;25.40;99.90;;;;;;5013568;28;20180;-82
2021/06/28 11:39:03;;;;;;;4.40;4.10;;;25.40;99.90;;;;;;5016793;28;20227;-82
2021/06/28 11:41:30;;;;;;;4.40;4.05;;;25.40;99.90;;;;;;5025042;28;20176;-81
2021/06/28 11:43:58;;;;;;;6.07;4.78;;;25.80;99.90;;;;;;5024796;28;20255;-81
2021/06/28 11:46:30;;;;;;;6.35;4.20;;;26.30;99.90;;;;;;5022164;28;20157;-82
2021/06/28 11:48:58;;;;;;;7.88;3.70;;;26.60;99.90;;;;;;5023570;28;20228;-82
2021/06/28 11:51:30;;;;;;;5.05;3.58;;;26.70;99.90;;;;;;5017526;28;20180;-80
2021/06/28 11:54:10;;;;;;;6.55;3.55;;;26.50;99.90;;;;;;5015357;28;20196;-81
2021/06/28 11:56:38;;;;;;;6.55;3.83;;;26.10;99.90;;;;;;5014919;28;20172;-81
2021/06/28 11:59:15;;;;;;;13.02;3.85;;;25.70;99.90;;;;;;5013660;28;20300;-82
2021/06/28 12:01:46;;;;;;;4.22;3.65;;;25.70;99.90;;;;;;5015314;28;20168;-82
2021/06/28 12:04:23;;;;;;;11.95;4.03;;;25.40;99.90;;;;;;5013788;28;20258;-82
2021/06/28 12:06:50;;;;;;;8.55;4.22;;;25.10;99.90;;;;;;5015093;28;20195;-82
2021/06/28 12:09:30;;;;;;;5.30;3.38;;;25.20;99.90;;;;;;5013964;28;20263;-82
2021/06/28 12:12:01;;;;;;;3.90;3.50;;;25.20;99.90;;;;;;5015512;28;20183;-81
2021/06/28 12:14:34;;;;;;;3.92;3.63;;;25.20;99.90;;;;;;5016299;28;20220;-81
2021/06/28 12:17:07;;;;;;;5.78;3.10;;;25.20;99.90;;;;;;5014015;28;20255;-82
2021/06/28 12:19:34;;;;;;;3.50;3.15;;;25.00;99.90;;;;;;5013966;28;20653;-82
2021/06/28 12:22:07;;;;;;;7.15;2.78;;;25.20;99.90;;;;;;5013944;28;20227;-81
2021/06/28 12:24:33;;;;;;;2.67;2.47;;;25.50;99.90;;;;;;5015780;28;20517;-82
2021/06/28 12:27:08;;;;;;;4.07;2.40;;;25.60;99.90;;;;;;5014421;28;20175;-81
2021/06/28 12:29:39;;;;;;;6.50;2.40;;;25.60;99.90;;;;;;5014870;28;20172;-83
2021/06/28 12:32:16;;;;;;;6.82;2.45;;;25.20;99.90;;;;;;5013012;28;20180;-82
2021/06/28 12:34:48;;;;;;;8.30;2.45;;;25.20;99.90;;;;;;5030974;28;20182;-85
2021/06/28 12:37:21;;;;;;;3.08;2.15;;;25.20;99.90;;;;;;5020541;28;20164;-83
2021/06/28 12:39:46;;;;;;;7.72;2.42;;;25.30;99.90;;;;;;5020984;28;20200;-82
2021/06/28 12:42:18;;;;;;;3.80;2.38;;;25.60;99.90;;;;;;5019375;28;20256;-82
2021/06/28 12:44:45;;;;;;;11.32;2.45;;;25.40;99.90;;;;;;5019518;28;20172;-82
2021/06/28 12:47:15;;;;;;;1.98;1.77;;;25.60;99.90;;;;;;5019235;28;20165;-82
2021/06/28 12:49:41;;;;;;;1.50;1.30;;;25.90;99.90;;;;;;5017874;28;20164;-82